Time;durP1;ratioP1;P1;durP2;ratioP2;P2;SDS_P1;SDS_P2;PMS_P1;PMS_P2;Temp;Humidity;BMP_temperature;BMP_pressure;BME280_temperature;BME280_humidity;BME280_pressure;Samples;Min_cycle;Max_cycle;Signal;HPM_P1;HPM_P2
2022/03/31 00:00:32;;;;;;;18.38;7.97;;;;;;;11.98;84.34;99583.41;5028953;28;20444;-76
2022/03/31 00:02:59;;;;;;;18.00;7.55;;;;;;;12.20;84.75;99630.31;5011976;28;20025;-75
2022/03/31 00:05:24;;;;;;;12.60;7.07;;;;;;;12.19;84.59;99626.88;5029078;28;20086;-75
2022/03/31 00:07:54;;;;;;;20.00;8.90;;;;;;;12.39;84.73;99670.34;5029263;28;20029;-75
2022/03/31 00:10:21;;;;;;;27.77;8.02;;;;;;;12.34;84.59;99641.78;5028867;28;20068;-75
2022/03/31 00:12:47;;;;;;;20.17;7.97;;;;;;;12.33;84.87;99642.63;5029413;28;20025;-75
2022/03/31 00:15:12;;;;;;;17.90;8.15;;;;;;;12.17;85.16;99619.94;5029305;28;20037;-76
2022/03/31 00:17:38;;;;;;;19.30;7.57;;;;;;;12.36;85.54;99649.56;5029071;28;20032;-75
2022/03/31 00:20:04;;;;;;;16.75;8.27;;;;;;;12.28;85.78;99639.94;5029149;28;20477;-75
2022/03/31 00:22:29;;;;;;;21.42;9.15;;;;;;;12.31;86.31;99636.53;5029193;28;20091;-75
2022/03/31 00:24:55;;;;;;;21.45;8.88;;;;;;;12.20;86.69;99613.09;5028928;28;20116;-75
2022/03/31 00:27:21;;;;;;;16.85;7.90;;;;;;;12.18;86.95;99613.91;5010808;28;20033;-75
2022/03/31 00:29:47;;;;;;;20.70;9.50;;;;;;;12.16;87.43;99592.31;5027503;28;20056;-74
2022/03/31 00:32:13;;;;;;;18.23;8.77;;;;;;;12.33;88.15;99629.69;5029871;28;20021;-75
2022/03/31 00:34:39;;;;;;;23.70;9.35;;;;;;;12.35;88.76;99635.75;5029921;28;20116;-74
2022/03/31 00:37:05;;;;;;;15.25;8.35;;;;;;;12.21;89.23;99604.47;5029759;28;20033;-74
2022/03/31 00:39:33;;;;;;;25.10;10.25;;;;;;;12.02;89.53;99563.63;5033671;28;20037;-74
2022/03/31 00:42:00;;;;;;;24.52;11.57;;;;;;;12.28;89.44;99610.63;5033074;28;20038;-75
2022/03/31 00:44:26;;;;;;;25.33;10.68;;;;;;;12.29;89.28;99596.84;5033323;28;20036;-75
2022/03/31 00:46:54;;;;;;;17.33;9.13;;;;;;;12.42;89.19;99611.72;5033665;28;20099;-75
2022/03/31 00:49:21;;;;;;;20.77;10.45;;;;;;;12.45;89.05;99627.28;5033532;28;20040;-75
2022/03/31 00:51:48;;;;;;;22.95;9.60;;;;;;;12.42;88.93;99611.72;5033371;28;20172;-75
2022/03/31 00:54:15;;;;;;;26.67;10.98;;;;;;;12.45;88.96;99616.06;5033681;28;20033;-74
2022/03/31 00:56:41;;;;;;;25.52;10.48;;;;;;;12.57;88.87;99639.56;5032985;28;20036;-74
2022/03/31 00:59:09;;;;;;;29.05;10.90;;;;;;;12.40;88.66;99603.03;5033758;28;20030;-75
2022/03/31 01:01:40;;;;;;;27.10;11.57;;;;;;;12.56;88.68;99622.28;5033353;28;20053;-75
2022/03/31 01:04:09;;;;;;;23.70;10.13;;;;;;;12.60;89.33;99636.16;5030039;28;20402;-75
2022/03/31 01:06:35;;;;;;;28.63;11.90;;;;;;;12.45;89.92;99596.22;5032748;28;20485;-73
2022/03/31 01:09:04;;;;;;;24.25;11.00;;;;;;;12.49;90.20;99614.41;5033159;28;20036;-75
2022/03/31 01:11:30;;;;;;;21.33;10.40;;;;;;;12.59;90.14;99624.03;5032933;28;20036;-75
2022/03/31 01:13:56;;;;;;;31.67;10.65;;;;;;;12.56;90.63;99616.22;5032938;28;20037;-75
2022/03/31 01:16:22;;;;;;;27.92;11.50;;;;;;;12.50;91.11;99610.94;5033223;28;20033;-75
2022/03/31 01:18:48;;;;;;;30.80;11.60;;;;;;;12.44;90.77;99597.06;5032859;28;20408;-75
2022/03/31 01:21:15;;;;;;;30.83;11.13;;;;;;;12.61;90.49;99619.75;5032783;28;20021;-78
2022/03/31 01:23:40;;;;;;;27.17;12.18;;;;;;;12.64;90.33;99604.25;5014911;28;20035;-75
2022/03/31 01:26:09;;;;;;;27.15;12.18;;;;;;;12.63;90.64;99615.47;5032816;28;20087;-75
2022/03/31 01:28:36;;;;;;;23.30;11.07;;;;;;;12.56;90.48;99587.72;5009834;28;20476;-75
2022/03/31 01:31:02;;;;;;;28.00;9.85;;;;;;;12.64;90.60;99611.19;5032738;28;20087;-75
2022/03/31 01:33:28;;;;;;;24.40;10.48;;;;;;;12.48;90.86;99608.34;5032684;28;20057;-76
2022/03/31 01:35:54;;;;;;;19.67;8.85;;;;;;;12.18;91.77;99564.75;5032647;28;20029;-75
2022/03/31 01:38:19;;;;;;;29.20;11.45;;;;;;;12.39;92.52;99624.59;5032055;28;20026;-75
2022/03/31 01:40:45;;;;;;;25.50;9.65;;;;;;;12.33;92.94;99621.91;5032457;28;20420;-75
2022/03/31 01:43:11;;;;;;;23.85;9.90;;;;;;;12.23;93.35;99618.28;5032208;28;20401;-74
2022/03/31 01:45:37;;;;;;;26.33;10.45;;;;;;;12.22;93.80;99621.72;5032371;28;20087;-72
2022/03/31 01:48:03;;;;;;;24.98;10.80;;;;;;;12.28;93.25;99628.72;5031474;28;20039;-74
2022/03/31 01:50:28;;;;;;;29.08;11.75;;;;;;;12.29;93.22;99618.41;5025851;28;20033;-74
2022/03/31 01:52:54;;;;;;;26.52;10.60;;;;;;;12.26;93.18;99614.88;5016401;28;20045;-74
2022/03/31 01:55:19;;;;;;;29.45;11.32;;;;;;;12.28;93.73;99623.56;5012145;28;20048;-74
2022/03/31 01:57:45;;;;;;;30.52;11.07;;;;;;;12.26;93.61;99614.88;5011956;28;20109;-71
2022/03/31 02:00:10;;;;;;;22.63;9.20;;;;;;;12.25;94.19;99610.56;5013535;28;20393;-74
2022/03/31 02:02:36;;;;;;;25.13;10.18;;;;;;;11.98;94.72;99578.22;5031680;28;20033;-74
2022/03/31 02:05:01;;;;;;;22.55;9.73;;;;;;;12.11;95.39;99606.03;5032160;28;20029;-74
2022/03/31 02:07:28;;;;;;;23.40;10.50;;;;;;;12.04;96.42;99604.19;5032067;28;20469;-75
2022/03/31 02:09:53;;;;;;;22.73;9.50;;;;;;;11.94;97.03;99605.72;5032186;28;20501;-73
2022/03/31 02:12:18;;;;;;;24.40;9.38;;;;;;;11.90;97.58;99597.88;5032000;28;20026;-73
2022/03/31 02:14:44;;;;;;;19.85;8.30;;;;;;;11.76;98.42;99588.16;5032129;28;20431;-76
2022/03/31 02:17:11;;;;;;;30.17;9.95;;;;;;;11.80;98.67;99599.41;5031889;28;20022;-75
2022/03/31 02:19:37;;;;;;;31.58;11.00;;;;;;;11.81;98.72;99612.41;5031738;28;20028;-75
2022/03/31 02:22:04;;;;;;;26.90;10.00;;;;;;;11.84;98.99;99611.56;5031279;28;20401;-75
2022/03/31 02:24:30;;;;;;;23.95;8.98;;;;;;;11.83;98.96;99594.31;5030349;28;20119;-75
2022/03/31 02:26:56;;;;;;;28.50;10.50;;;;;;;11.86;99.21;99580.56;5031942;28;20045;-78
2022/03/31 02:29:22;;;;;;;23.98;9.75;;;;;;;11.77;99.36;99564.03;5032003;28;20021;-77
2022/03/31 02:31:48;;;;;;;28.33;9.35;;;;;;;11.69;99.93;99569.91;5014098;28;20022;-76
2022/03/31 02:34:17;;;;;;;25.52;8.88;;;;;;;11.76;100.00;99583.00;5031359;28;20053;-77
2022/03/31 02:36:43;;;;;;;25.88;8.48;;;;;;;11.77;99.44;99568.34;5031637;28;20044;-75
2022/03/31 02:39:10;;;;;;;29.55;10.18;;;;;;;11.87;98.83;99580.59;5023460;28;20030;-75
2022/03/31 02:41:37;;;;;;;27.92;10.18;;;;;;;12.02;97.91;99600.69;5030037;28;20076;-74
2022/03/31 02:44:03;;;;;;;25.35;9.15;;;;;;;12.12;97.29;99589.69;5029964;28;20029;-75
2022/03/31 02:46:29;;;;;;;28.98;9.48;;;;;;;12.13;96.78;99577.59;5026148;28;20037;-75
2022/03/31 02:48:55;;;;;;;30.80;9.20;;;;;;;12.26;97.02;99578.66;5030748;28;20392;-75
2022/03/31 02:51:22;;;;;;;33.30;10.93;;;;;;;12.34;97.03;99576.22;5013525;28;20029;-75
2022/03/31 02:56:33;;;;;;;31.63;10.32;;;;;;;12.19;97.57;99538.03;5011098;28;20076;-75
2022/03/31 02:58:58;;;;;;;30.00;10.32;;;;;;;12.32;97.13;99560.63;5010523;28;20100;-75
2022/03/31 03:01:24;;;;;;;26.70;10.02;;;;;;;12.49;96.77;99591.09;5016048;28;20025;-75
2022/03/31 03:03:50;;;;;;;29.73;9.43;;;;;;;12.44;96.37;99589.28;5030168;28;20025;-71
2022/03/31 03:06:16;;;;;;;33.83;10.35;;;;;;;12.55;95.98;99601.56;5013229;28;20030;-73
2022/03/31 03:08:41;;;;;;;27.48;9.40;;;;;;;12.45;95.70;99579.84;5010397;28;20441;-74
2022/03/31 03:11:08;;;;;;;21.23;8.05;;;;;;;12.54;95.71;99579.09;5010348;28;20033;-71
2022/03/31 03:13:35;;;;;;;24.40;9.45;;;;;;;12.56;96.19;99596.38;5010566;28;20022;-75
2022/03/31 03:16:05;;;;;;;26.98;10.02;;;;;;;12.59;95.87;99585.19;5010593;28;20026;-75
2022/03/31 03:18:31;;;;;;;25.02;7.63;;;;;;;12.35;96.36;99552.94;5010194;28;20060;-75
2022/03/31 03:20:57;;;;;;;24.30;8.77;;;;;;;12.56;96.59;99575.69;5010773;28;20402;-76
2022/03/31 03:23:22;;;;;;;30.02;9.32;;;;;;;12.37;96.74;99553.81;5010319;28;20026;-75
2022/03/31 03:25:47;;;;;;;28.52;9.18;;;;;;;12.55;96.61;99596.38;5010369;28;20022;-74
2022/03/31 03:28:13;;;;;;;35.08;11.18;;;;;;;12.52;97.05;99599.75;5010182;28;20026;-75
2022/03/31 03:30:39;;;;;;;39.78;10.55;;;;;;;12.51;97.51;99577.34;5010248;28;20401;-72
2022/03/31 03:33:05;;;;;;;31.65;10.77;;;;;;;12.41;97.56;99560.78;5009431;28;20514;-72
2022/03/31 03:35:31;;;;;;;25.10;8.73;;;;;;;12.38;97.98;99586.63;5009921;28;20508;-74
2022/03/31 03:37:57;;;;;;;27.67;10.50;;;;;;;12.43;97.84;99572.00;5008669;28;20022;-74
2022/03/31 03:40:22;;;;;;;27.70;9.52;;;;;;;12.49;97.97;99591.09;5010090;28;20031;-76
2022/03/31 03:42:48;;;;;;;26.90;9.38;;;;;;;12.36;98.16;99565.03;5010071;28;20029;-71
2022/03/31 03:45:14;;;;;;;24.20;10.60;;;;;;;12.51;98.35;99579.91;5010713;28;20022;-74
2022/03/31 03:47:40;;;;;;;32.78;10.35;;;;;;;12.50;98.26;99572.09;5009553;28;20080;-73
2022/03/31 03:50:06;;;;;;;27.35;8.68;;;;;;;12.43;98.68;99565.97;5010385;28;20030;-74
2022/03/31 03:52:32;;;;;;;27.27;9.85;;;;;;;12.45;99.23;99566.88;5009948;28;20036;-74
2022/03/31 03:54:58;;;;;;;24.42;9.60;;;;;;;12.42;99.77;99562.53;5007716;28;20021;-76
2022/03/31 03:57:23;;;;;;;22.27;9.13;;;;;;;12.48;100.00;99584.19;5010154;28;20061;-72
2022/03/31 03:59:50;;;;;;;25.70;9.00;;;;;;;12.12;100.00;99532.75;5009662;28;20045;-74
2022/03/31 04:02:16;;;;;;;31.58;10.18;;;;;;;12.20;100.00;99519.03;4974930;28;20521;-74
2022/03/31 04:04:42;;;;;;;30.30;10.30;;;;;;;12.44;100.00;99554.78;5010129;28;20026;-77
2022/03/31 04:07:07;;;;;;;28.10;11.13;;;;;;;12.38;100.00;99541.75;5009989;28;20482;-76
2022/03/31 04:09:33;;;;;;;29.35;11.63;;;;;;;12.42;100.00;99551.28;5009883;28;20030;-73
2022/03/31 04:11:58;;;;;;;29.40;10.55;;;;;;;12.37;100.00;99540.88;5010190;28;20105;-75
2022/03/31 04:14:24;;;;;;;23.33;9.68;;;;;;;12.43;100.00;99556.47;5012061;28;20039;-71
2022/03/31 04:16:50;;;;;;;22.13;9.20;;;;;;;12.29;100.00;99525.22;5013395;28;20085;-75
2022/03/31 04:19:16;;;;;;;29.40;11.50;;;;;;;12.48;100.00;99563.47;5013535;28;20527;-74
2022/03/31 04:21:41;;;;;;;26.08;10.90;;;;;;;12.49;100.00;99558.31;5002771;28;20029;-75
2022/03/31 04:24:07;;;;;;;31.00;10.27;;;;;;;12.56;99.96;99572.19;5016591;28;20112;-74
2022/03/31 04:26:34;;;;;;;28.00;10.32;;;;;;;12.55;99.80;99557.53;5033873;28;20515;-74
2022/03/31 04:29:01;;;;;;;28.58;9.48;;;;;;;12.57;99.62;99567.06;5034271;28;20115;-74
2022/03/31 04:31:27;;;;;;;25.25;8.77;;;;;;;12.48;99.70;99548.78;5033755;28;20394;-74
2022/03/31 04:33:52;;;;;;;32.30;10.18;;;;;;;12.58;99.75;99561.00;5033864;28;20068;-74
2022/03/31 04:36:18;;;;;;;25.25;9.65;;;;;;;12.58;99.96;99560.16;5033919;28;20473;-74
2022/03/31 04:38:43;;;;;;;28.05;10.63;;;;;;;12.43;99.78;99540.94;5033661;28;20029;-73
2022/03/31 04:41:09;;;;;;;25.10;8.95;;;;;;;12.60;99.66;99563.66;5033855;28;20435;-73
2022/03/31 04:43:34;;;;;;;27.45;9.73;;;;;;;12.62;100.00;99562.81;5028107;28;20076;-74
2022/03/31 04:46:00;;;;;;;24.13;8.13;;;;;;;12.55;99.94;99555.81;5032418;28;20033;-74
2022/03/31 04:48:25;;;;;;;31.58;9.48;;;;;;;12.29;100.00;99509.69;5030582;28;20060;-74
2022/03/31 04:50:51;;;;;;;30.50;9.80;;;;;;;12.43;100.00;99520.25;5031222;28;20029;-73
2022/03/31 04:53:17;;;;;;;32.42;11.60;;;;;;;12.73;100.00;99559.50;5032876;28;20034;-74
2022/03/31 04:55:43;;;;;;;26.77;10.10;;;;;;;12.74;100.00;99556.06;5030377;28;20037;-74
2022/03/31 04:58:08;;;;;;;30.63;11.05;;;;;;;12.78;100.00;99563.91;5033072;28;20029;-73
2022/03/31 05:00:34;;;;;;;29.70;10.23;;;;;;;12.82;99.98;99559.59;5033059;28;20057;-74
2022/03/31 05:02:59;;;;;;;28.67;10.75;;;;;;;12.90;99.56;99559.72;5033147;28;20053;-74
2022/03/31 05:05:26;;;;;;;31.00;10.63;;;;;;;12.91;100.00;99554.56;5032833;28;20067;-72
2022/03/31 05:07:51;;;;;;;32.25;9.95;;;;;;;12.71;100.00;99507.69;5031716;28;20017;-70
2022/03/31 05:10:18;;;;;;;29.48;9.80;;;;;;;12.73;99.60;99505.09;5032059;28;20038;-70
2022/03/31 05:12:44;;;;;;;20.10;7.32;;;;;;;13.03;99.37;99540.88;5032442;28;20037;-73
2022/03/31 05:15:11;;;;;;;26.75;9.55;;;;;;;13.09;98.86;99547.84;5031731;28;20124;-73
2022/03/31 05:17:38;;;;;;;24.80;9.10;;;;;;;13.11;99.10;99541.84;5032129;28;20033;-73
2022/03/31 05:20:13;;;;;;;26.55;8.65;;;;;;;13.16;99.22;99548.78;5030950;28;20352;-74
2022/03/31 05:22:40;;;;;;;26.20;10.60;;;;;;;13.16;98.61;99539.31;5031429;28;20056;-75
2022/03/31 05:25:10;;;;;;;28.83;9.35;;;;;;;13.19;98.60;99546.25;5031946;28;20025;-72
2022/03/31 05:27:46;;;;;;;29.92;8.50;;;;;;;13.29;97.88;99563.63;4981607;28;20497;-73
2022/03/31 05:30:16;;;;;;;27.15;9.43;;;;;;;13.16;97.84;99543.59;5031552;28;20021;-71
2022/03/31 05:32:42;;;;;;;21.88;7.95;;;;;;;13.33;97.77;99556.75;5031303;28;20034;-72
2022/03/31 05:35:09;;;;;;;31.02;9.00;;;;;;;13.33;97.02;99557.63;5030680;28;20041;-73
2022/03/31 05:37:35;;;;;;;26.58;9.50;;;;;;;13.40;97.10;99559.47;5031890;28;20029;-73
2022/03/31 05:40:05;;;;;;;23.80;9.00;;;;;;;13.46;97.41;99571.63;5031224;28;20037;-72
2022/03/31 05:42:32;;;;;;;30.25;10.25;;;;;;;13.40;97.11;99548.25;5031754;28;20034;-72
2022/03/31 05:45:02;;;;;;;34.15;9.35;;;;;;;13.50;96.91;99563.03;5031661;28;20032;-71
2022/03/31 05:47:27;;;;;;;32.00;9.88;;;;;;;13.54;97.02;99561.34;5030701;28;20079;-71
2022/03/31 05:49:53;;;;;;;35.30;9.77;;;;;;;13.57;97.23;99553.56;5030987;28;20087;-75
2022/03/31 05:52:20;;;;;;;34.33;9.30;;;;;;;13.59;96.53;99546.69;5029979;28;20064;-74
2022/03/31 05:54:45;;;;;;;33.42;10.00;;;;;;;13.68;96.30;99570.16;5030955;28;20073;-75
2022/03/31 05:57:11;;;;;;;28.35;7.80;;;;;;;13.70;95.94;99570.16;5031051;28;20084;-77
2022/03/31 05:59:36;;;;;;;29.50;9.55;;;;;;;13.70;96.08;99570.16;5013631;28;20037;-76
2022/03/31 06:02:02;;;;;;;27.83;8.13;;;;;;;13.58;95.60;99547.53;5031451;28;20033;-75
2022/03/31 06:04:28;;;;;;;24.05;8.95;;;;;;;13.78;95.59;99585.78;5031214;28;20029;-76
2022/03/31 06:06:53;;;;;;;34.03;10.88;;;;;;;13.84;95.65;99578.06;5030967;28;20037;-77
2022/03/31 06:09:19;;;;;;;26.33;9.63;;;;;;;13.81;95.42;99559.88;5029518;28;20037;-72
2022/03/31 06:11:44;;;;;;;33.97;10.50;;;;;;;13.67;95.36;99534.69;5029995;28;20044;-75
2022/03/31 06:14:11;;;;;;;28.33;8.93;;;;;;;13.94;95.38;99592.00;5031646;28;20448;-75
2022/03/31 06:16:37;;;;;;;31.20;9.80;;;;;;;13.77;95.32;99547.72;5029436;28;20031;-76
2022/03/31 06:19:03;;;;;;;21.73;7.72;;;;;;;13.64;95.02;99523.41;5031099;28;20555;-75
2022/03/31 06:21:29;;;;;;;30.33;10.30;;;;;;;14.10;94.59;99578.28;5031710;28;20116;-72
2022/03/31 06:23:54;;;;;;;29.85;8.23;;;;;;;14.07;94.75;99568.75;5031251;28;20392;-75
2022/03/31 06:26:20;;;;;;;32.83;8.80;;;;;;;14.05;94.48;99575.63;5031386;28;20025;-74
2022/03/31 06:28:45;;;;;;;35.25;9.93;;;;;;;13.89;94.20;99553.91;5031586;28;20021;-75
2022/03/31 06:31:11;;;;;;;31.27;9.15;;;;;;;13.81;94.00;99523.56;5013900;28;20468;-75
2022/03/31 06:33:37;;;;;;;26.33;9.20;;;;;;;14.16;94.09;99591.31;5028781;28;20524;-75
2022/03/31 06:36:03;;;;;;;32.53;10.10;;;;;;;14.10;93.47;99593.84;5029643;28;20047;-74
2022/03/31 06:38:29;;;;;;;29.52;9.30;;;;;;;14.21;93.33;99596.56;5027311;28;20041;-75
2022/03/31 06:41:06;;;;;;;30.27;9.27;;;;;;;14.20;92.95;99581.81;5029100;28;20079;-74
2022/03/31 06:43:36;;;;;;;30.75;8.25;;;;;;;14.26;93.03;99594.00;5028924;28;20026;-75
2022/03/31 06:46:02;;;;;;;;;;;;;;;14.26;93.11;99587.06;5028163;28;20030;-75
2022/03/31 06:48:29;;;;;;;28.55;8.10;;;;;;;14.25;92.28;99587.91;5030591;28;19990;-75
2022/03/31 06:50:55;;;;;;;31.98;8.65;;;;;;;14.31;92.62;99613.94;5030873;28;20021;-75
2022/03/31 06:53:21;;;;;;;24.65;7.70;;;;;;;14.27;92.03;99606.97;5030981;28;20492;-76
2022/03/31 06:55:46;;;;;;;33.22;8.90;;;;;;;14.14;92.71;99585.22;5031023;28;20389;-76
2022/03/31 06:58:11;;;;;;;25.73;9.00;;;;;;;14.33;93.46;99614.81;5031109;28;20462;-74
2022/03/31 07:00:37;;;;;;;33.85;9.23;;;;;;;14.38;94.81;99628.69;5030699;28;20451;-73
2022/03/31 07:03:03;;;;;;;31.48;8.43;;;;;;;14.30;96.47;99613.94;5030874;28;20078;-76
2022/03/31 07:05:29;;;;;;;25.75;8.43;;;;;;;14.34;97.69;99616.56;5030512;28;20560;-75
2022/03/31 07:07:54;;;;;;;35.70;10.25;;;;;;;14.12;98.00;99581.78;5030285;28;20524;-75
2022/03/31 07:10:21;;;;;;;33.08;9.45;;;;;;;14.36;97.62;99609.63;5030538;28;20033;-75
2022/03/31 07:12:47;;;;;;;31.20;9.02;;;;;;;14.26;97.48;99609.56;5012573;28;20025;-76
2022/03/31 07:15:13;;;;;;;30.98;8.05;;;;;;;14.24;96.05;99604.34;5030373;28;20033;-75
2022/03/31 07:17:38;;;;;;;34.85;9.18;;;;;;;14.38;97.56;99626.09;5030285;28;20028;-74
2022/03/31 07:20:04;;;;;;;28.42;8.13;;;;;;;14.10;98.05;99580.88;5026102;28;20025;-73
2022/03/31 07:22:32;;;;;;;29.15;9.07;;;;;;;14.34;97.28;99631.25;5031037;28;20168;-75
2022/03/31 07:24:58;;;;;;;33.65;9.75;;;;;;;14.31;98.79;99633.84;5030836;28;20057;-75
2022/03/31 07:27:23;;;;;;;40.58;9.95;;;;;;;14.21;99.74;99607.78;5030761;28;20064;-77
2022/03/31 07:29:49;;;;;;;35.45;9.77;;;;;;;14.03;99.05;99567.00;5030129;28;20416;-75
2022/03/31 07:32:14;;;;;;;30.38;8.82;;;;;;;14.37;100.00;99605.34;5030860;28;20476;-76
2022/03/31 07:34:39;;;;;;;25.02;7.40;;;;;;;14.34;100.00;99589.72;5030480;28;20048;-77
2022/03/31 07:37:05;;;;;;;29.92;9.48;;;;;;;14.31;100.00;99592.31;5030877;28;20495;-77
2022/03/31 07:39:31;;;;;;;33.40;8.90;;;;;;;14.29;99.90;99607.84;5030741;28;20060;-75
2022/03/31 07:41:56;;;;;;;26.90;9.25;;;;;;;14.28;100.00;99605.25;4995440;28;20719;-75
2022/03/31 07:44:22;;;;;;;24.40;7.15;;;;;;;14.20;100.00;99607.78;5030494;28;20473;-79
2022/03/31 07:46:47;;;;;;;29.67;8.23;;;;;;;14.21;98.33;99618.16;5034027;28;20032;-77
2022/03/31 07:49:14;;;;;;;32.22;9.43;;;;;;;14.27;98.31;99630.34;5030300;28;20048;-77
2022/03/31 07:51:39;;;;;;;33.40;8.73;;;;;;;14.39;98.21;99640.84;5025584;28;20028;-76
2022/03/31 07:54:05;;;;;;;28.10;7.28;;;;;;;14.44;98.85;99642.59;5027346;28;20105;-77
2022/03/31 07:56:30;;;;;;;29.95;8.05;;;;;;;14.48;98.11;99641.75;5024893;28;20025;-76
2022/03/31 07:58:56;;;;;;;30.58;7.85;;;;;;;14.43;100.00;99625.25;5029477;28;20037;-76
2022/03/31 08:01:21;;;;;;;31.08;8.18;;;;;;;14.43;98.84;99625.25;5030263;28;20507;-75
2022/03/31 08:03:47;;;;;;;26.10;8.52;;;;;;;14.46;96.04;99644.34;5030424;28;20519;-75
2022/03/31 08:06:12;;;;;;;29.33;7.90;;;;;;;14.61;95.58;99635.78;5030340;28;20029;-76
2022/03/31 08:08:38;;;;;;;37.65;8.50;;;;;;;14.65;95.16;99618.53;5030545;28;20760;-76
2022/03/31 08:11:04;;;;;;;29.27;7.50;;;;;;;14.91;93.80;99636.03;5030263;28;20409;-78
2022/03/31 08:13:30;;;;;;;28.08;6.55;;;;;;;14.76;92.55;99609.06;5030293;28;20072;-78
2022/03/31 08:15:58;;;;;;;33.58;8.95;;;;;;;15.23;90.84;99650.91;5030304;28;20071;-76
2022/03/31 08:18:28;;;;;;;31.05;8.05;;;;;;;15.40;91.11;99650.97;5012702;28;20397;-75
2022/03/31 08:20:54;;;;;;;33.30;8.15;;;;;;;15.63;90.53;99649.34;5030479;28;20112;-76
2022/03/31 08:23:20;;;;;;;34.97;8.48;;;;;;;15.96;87.20;99652.94;5030247;28;20037;-78
2022/03/31 08:25:46;;;;;;;24.08;7.50;;;;;;;16.21;84.44;99641.66;5030101;28;20022;-76
2022/03/31 08:28:11;;;;;;;28.77;7.88;;;;;;;16.33;81.90;99644.28;5030107;28;20062;-75
2022/03/31 08:30:36;;;;;;;33.60;7.70;;;;;;;16.50;78.43;99645.13;5018065;28;20077;-76
2022/03/31 08:33:02;;;;;;;31.35;7.97;;;;;;;16.66;76.48;99653.81;5028411;28;20045;-76
2022/03/31 08:35:28;;;;;;;28.00;6.72;;;;;;;16.86;77.41;99642.50;5028674;28;20141;-75
2022/03/31 08:37:54;;;;;;;36.78;8.07;;;;;;;16.90;72.78;99622.50;5030011;28;20040;-76
2022/03/31 08:40:19;;;;;;;28.08;7.70;;;;;;;17.03;73.00;99628.56;5030228;28;20033;-76
2022/03/31 08:42:45;;;;;;;33.75;8.73;;;;;;;16.94;71.70;99612.06;5030174;28;20081;-75
2022/03/31 08:45:14;;;;;;;32.30;6.20;;;;;;;17.29;71.36;99634.53;5030023;28;20386;-76
2022/03/31 08:47:42;;;;;;;41.75;7.38;;;;;;;17.39;70.58;99642.34;5030202;28;20026;-76
2022/03/31 08:50:09;;;;;;;28.13;6.57;;;;;;;17.53;69.81;99627.47;5030187;28;20048;-76
2022/03/31 08:52:35;;;;;;;33.15;8.20;;;;;;;17.59;69.72;99622.22;5029965;28;20085;-75
2022/03/31 08:55:00;;;;;;;32.67;8.85;;;;;;;17.64;69.37;99593.50;5022137;28;20441;-76
2022/03/31 08:57:38;;;;;;;24.27;6.10;;;;;;;17.81;66.73;99590.78;5010022;28;20026;-76
2022/03/31 09:00:04;;;;;;;35.90;8.10;;;;;;;17.77;65.83;99613.44;5012846;28;20025;-76
2022/03/31 09:02:29;;;;;;;31.55;8.85;;;;;;;17.79;65.23;99600.38;5013515;28;20511;-74
2022/03/31 09:05:12;;;;;;;28.48;8.05;;;;;;;17.85;64.92;99639.50;4979388;28;20049;-75
2022/03/31 09:07:56;;;;;;;40.08;7.43;;;;;;;17.81;64.91;99629.06;5013909;28;20041;-75
2022/03/31 09:10:49;;;;;;;45.35;8.82;;;;;;;17.74;65.72;99616.06;5013761;28;20037;-76
2022/03/31 09:13:25;;;;;;;36.65;8.95;;;;;;;17.96;65.87;99618.56;4933694;29;20547;-76
2022/03/31 09:15:56;;;;;;;27.10;6.97;;;;;;;17.91;64.86;99599.44;4933775;29;20047;-75
2022/03/31 09:18:23;;;;;;;29.92;8.27;;;;;;;17.86;65.81;99602.06;4933313;29;20047;-75
2022/03/31 09:20:55;;;;;;;27.15;8.05;;;;;;;17.76;67.34;99553.41;4939221;29;20220;-74
2022/03/31 09:23:23;;;;;;;37.30;7.80;;;;;;;18.00;65.70;99588.09;4952798;29;20038;-74
2022/03/31 09:25:51;;;;;;;37.72;8.70;;;;;;;17.84;66.21;99584.69;4952451;29;20051;-74
2022/03/31 09:28:21;;;;;;;27.52;6.93;;;;;;;17.95;66.15;99520.22;4952724;29;20118;-71
2022/03/31 09:30:50;;;;;;;33.50;7.55;;;;;;;17.73;65.86;99542.97;4952529;29;20147;-74
2022/03/31 09:33:44;;;;;;;26.45;5.70;;;;;;;17.75;66.48;99549.06;4951814;29;20059;-75
2022/03/31 09:36:18;;;;;;;41.38;9.10;;;;;;;17.58;66.61;99534.41;4952505;29;20046;-74
2022/03/31 09:39:07;;;;;;;28.52;6.88;;;;;;;17.32;67.12;99511.09;4921016;29;20126;-75
2022/03/31 09:41:34;;;;;;;27.83;7.75;;;;;;;17.67;67.24;99567.41;4952410;29;20542;-74
2022/03/31 09:44:07;;;;;;;32.00;7.65;;;;;;;17.60;66.82;99529.16;4952194;29;20058;-74
2022/03/31 09:46:35;;;;;;;34.90;7.28;;;;;;;17.62;66.85;99528.25;4951955;29;20035;-74
2022/03/31 09:49:14;;;;;;;36.33;8.77;;;;;;;17.68;65.96;99544.75;4953059;28;20042;-74
2022/03/31 09:51:45;;;;;;;59.78;9.60;;;;;;;17.69;65.64;99542.13;5032746;28;20029;-74
2022/03/31 09:54:11;;;;;;;36.70;8.52;;;;;;;17.67;65.73;99533.47;5032452;28;20037;-74
2022/03/31 09:56:40;;;;;;;31.08;8.23;;;;;;;17.80;65.90;99531.63;5032448;28;20109;-75
2022/03/31 09:59:08;;;;;;;34.30;8.02;;;;;;;17.81;64.91;99537.69;5032658;28;20029;-75
2022/03/31 10:01:36;;;;;;;41.47;10.20;;;;;;;17.86;66.58;99557.69;5025141;28;20503;-74
2022/03/31 10:04:02;;;;;;;34.78;7.55;;;;;;;17.86;65.80;99567.28;5014975;28;20383;-74
2022/03/31 10:06:28;;;;;;;34.03;8.23;;;;;;;17.77;65.77;99571.66;5012399;28;20032;-74
2022/03/31 10:08:57;;;;;;;38.03;8.98;;;;;;;17.75;64.98;99551.69;5012433;28;20042;-74
2022/03/31 10:11:25;;;;;;;35.13;7.57;;;;;;;17.87;65.91;99528.09;5011485;28;20057;-74
2022/03/31 10:14:21;;;;;;;31.95;7.90;;;;;;;17.97;65.66;99531.53;4995349;28;20049;-74
2022/03/31 10:16:53;;;;;;;36.70;7.85;;;;;;;18.08;65.08;99528.78;5027486;28;20033;-75
2022/03/31 10:19:46;;;;;;;33.38;7.63;;;;;;;18.08;64.85;99536.63;5031652;28;20026;-75
2022/03/31 10:25:03;;;;;;;21.70;6.00;;;;;;;18.14;63.48;99556.63;5027123;28;20040;-75
2022/03/31 10:27:30;;;;;;;33.60;7.90;;;;;;;18.15;64.85;99522.63;5031209;28;20429;-75
2022/03/31 10:30:09;;;;;;;39.47;7.75;;;;;;;18.35;63.71;99547.72;5031830;28;20022;-75
2022/03/31 10:32:34;;;;;;;34.28;8.63;;;;;;;18.27;63.39;99530.38;5031844;28;20061;-75
2022/03/31 10:34:59;;;;;;;35.58;7.80;;;;;;;18.27;63.59;99553.88;5031244;28;20100;-75
2022/03/31 10:37:35;;;;;;;35.15;8.45;;;;;;;18.28;64.82;99560.00;5030911;28;20025;-76
2022/03/31 10:40:07;;;;;;;43.88;8.60;;;;;;;18.15;63.85;99520.03;5030717;28;20099;-75
2022/03/31 10:42:33;;;;;;;31.02;8.38;;;;;;;18.41;64.59;99539.81;5034154;28;20472;-75
2022/03/31 10:45:12;;;;;;;39.45;7.28;;;;;;;18.20;63.24;99562.66;5031103;28;20056;-75
2022/03/31 10:47:40;;;;;;;33.17;8.27;;;;;;;18.20;64.14;99548.72;5031236;28;20494;-75
2022/03/31 10:50:08;;;;;;;34.67;9.23;;;;;;;18.23;64.54;99557.41;5031538;28;20034;-75
2022/03/31 10:52:34;;;;;;;24.75;6.78;;;;;;;18.21;64.25;99560.91;5030713;28;20070;-75
2022/03/31 10:55:14;;;;;;;29.15;8.55;;;;;;;18.04;63.50;99537.53;5031342;28;20120;-75
2022/03/31 10:57:44;;;;;;;37.58;9.43;;;;;;;18.04;64.29;99532.31;5030978;28;20095;-75
2022/03/31 11:00:14;;;;;;;40.75;8.70;;;;;;;17.97;63.50;99548.91;5031160;28;20040;-75
2022/03/31 11:02:52;;;;;;;34.78;8.45;;;;;;;17.94;62.88;99535.03;5031485;28;20083;-75
2022/03/31 11:05:21;;;;;;;45.80;8.57;;;;;;;17.89;64.45;99538.50;5030763;28;20091;-76
2022/03/31 11:07:48;;;;;;;31.05;8.90;;;;;;;17.78;64.54;99539.47;5030989;28;20497;-76
2022/03/31 11:10:17;;;;;;;26.65;7.22;;;;;;;17.79;64.21;99569.03;5022779;28;20041;-75
2022/03/31 11:12:43;;;;;;;31.80;8.35;;;;;;;17.65;65.02;99550.00;5027723;28;20026;-73
2022/03/31 11:15:10;;;;;;;24.60;6.05;;;;;;;17.60;64.97;99501.31;5030522;28;20449;-75
2022/03/31 11:17:39;;;;;;;34.70;8.52;;;;;;;17.75;64.49;99541.22;5030011;28;20473;-75
2022/03/31 11:20:21;;;;;;;23.55;5.95;;;;;;;17.76;64.85;99532.53;5027755;28;20017;-75
2022/03/31 11:23:06;;;;;;;34.20;7.95;;;;;;;17.80;64.53;99531.63;5027539;28;20408;-75
2022/03/31 11:25:33;;;;;;;25.08;7.10;;;;;;;17.68;64.26;99536.94;5028101;28;20029;-74
2022/03/31 11:28:07;;;;;;;28.63;7.60;;;;;;;17.63;64.08;99532.63;5029215;28;20037;-75